sensor_id;sensor_type;location;lat;lon;timestamp;temperature;humidity
20141;DHT22;10231;47.702;9.826;2023-03-23T00:00:43;8.30;99.90
20141;DHT22;10231;47.702;9.826;2023-03-23T00:03:09;8.30;99.90
20141;DHT22;10231;47.702;9.826;2023-03-23T00:05:34;8.40;99.90
20141;DHT22;10231;47.702;9.826;2023-03-23T00:08:02;8.50;99.90
20141;DHT22;10231;47.702;9.826;2023-03-23T00:10:28;8.50;99.90
20141;DHT22;10231;47.702;9.826;2023-03-23T00:12:58;8.50;99.90
20141;DHT22;10231;47.702;9.826;2023-03-23T00:15:27;8.50;99.90
20141;DHT22;10231;47.702;9.826;2023-03-23T00:18:01;8.50;99.90
20141;DHT22;10231;47.702;9.826;2023-03-23T00:20:30;8.40;99.90
20141;DHT22;10231;47.702;9.826;2023-03-23T00:23:05;8.30;99.90
20141;DHT22;10231;47.702;9.826;2023-03-23T00:25:32;8.30;99.90
20141;DHT22;10231;47.702;9.826;2023-03-23T00:27:57;8.20;99.90
20141;DHT22;10231;47.702;9.826;2023-03-23T00:30:23;8.20;99.90
20141;DHT22;10231;47.702;9.826;2023-03-23T00:32:49;8.20;99.90
20141;DHT22;10231;47.702;9.826;2023-03-23T00:35:16;8.10;99.90
20141;DHT22;10231;47.702;9.826;2023-03-23T00:37:42;8.20;99.90
20141;DHT22;10231;47.702;9.826;2023-03-23T00:40:09;8.00;99.90
20141;DHT22;10231;47.702;9.826;2023-03-23T00:42:35;8.00;99.90
20141;DHT22;10231;47.702;9.826;2023-03-23T00:45:04;8.00;99.90
20141;DHT22;10231;47.702;9.826;2023-03-23T00:47:36;8.10;99.90
20141;DHT22;10231;47.702;9.826;2023-03-23T00:50:03;8.00;99.90
20141;DHT22;10231;47.702;9.826;2023-03-23T00:52:30;8.00;99.90
20141;DHT22;10231;47.702;9.826;2023-03-23T00:54:56;8.00;99.90
20141;DHT22;10231;47.702;9.826;2023-03-23T00:57:21;7.90;99.90
20141;DHT22;10231;47.702;9.826;2023-03-23T00:59:52;7.90;99.90
20141;DHT22;10231;47.702;9.826;2023-03-23T01:02:18;8.00;99.90
20141;DHT22;10231;47.702;9.826;2023-03-23T01:04:44;7.90;99.90
20141;DHT22;10231;47.702;9.826;2023-03-23T01:07:11;8.00;99.90
20141;DHT22;10231;47.702;9.826;2023-03-23T01:09:39;7.90;99.90
20141;DHT22;10231;47.702;9.826;2023-03-23T01:12:10;7.90;99.90
20141;DHT22;10231;47.702;9.826;2023-03-23T01:14:36;7.90;99.90
20141;DHT22;10231;47.702;9.826;2023-03-23T01:17:02;7.90;99.90
20141;DHT22;10231;47.702;9.826;2023-03-23T01:19:28;7.90;99.90
20141;DHT22;10231;47.702;9.826;2023-03-23T01:21:53;7.90;99.90
20141;DHT22;10231;47.702;9.826;2023-03-23T01:24:19;7.90;99.90
20141;DHT22;10231;47.702;9.826;2023-03-23T01:26:44;7.90;99.90
20141;DHT22;10231;47.702;9.826;2023-03-23T01:29:10;7.90;99.90
20141;DHT22;10231;47.702;9.826;2023-03-23T01:31:36;7.80;99.90
20141;DHT22;10231;47.702;9.826;2023-03-23T01:34:02;7.80;99.90
20141;DHT22;10231;47.702;9.826;2023-03-23T01:36:29;7.70;99.90
20141;DHT22;10231;47.702;9.826;2023-03-23T01:38:59;7.70;99.90
20141;DHT22;10231;47.702;9.826;2023-03-23T01:41:26;7.70;99.90
20141;DHT22;10231;47.702;9.826;2023-03-23T01:44:06;7.70;99.90
20141;DHT22;10231;47.702;9.826;2023-03-23T01:46:35;7.70;99.90
20141;DHT22;10231;47.702;9.826;2023-03-23T01:49:19;7.60;99.90
20141;DHT22;10231;47.702;9.826;2023-03-23T01:51:49;7.60;99.90
20141;DHT22;10231;47.702;9.826;2023-03-23T01:54:19;7.70;99.90
20141;DHT22;10231;47.702;9.826;2023-03-23T01:57:02;7.70;99.90
20141;DHT22;10231;47.702;9.826;2023-03-23T01:59:29;7.80;99.90
20141;DHT22;10231;47.702;9.826;2023-03-23T02:01:55;7.70;99.90
20141;DHT22;10231;47.702;9.826;2023-03-23T02:04:23;7.70;99.90
20141;DHT22;10231;47.702;9.826;2023-03-23T02:06:51;7.70;99.90
20141;DHT22;10231;47.702;9.826;2023-03-23T02:09:17;7.70;99.90
20141;DHT22;10231;47.702;9.826;2023-03-23T02:11:44;7.80;99.90
20141;DHT22;10231;47.702;9.826;2023-03-23T02:14:11;7.80;99.90
20141;DHT22;10231;47.702;9.826;2023-03-23T02:16:55;7.80;99.90
20141;DHT22;10231;47.702;9.826;2023-03-23T02:25:21;7.70;99.90
20141;DHT22;10231;47.702;9.826;2023-03-23T02:28:04;7.70;99.90
20141;DHT22;10231;47.702;9.826;2023-03-23T02:30:43;7.70;99.90
20141;DHT22;10231;47.702;9.826;2023-03-23T02:39:08;7.80;99.90
20141;DHT22;10231;47.702;9.826;2023-03-23T02:41:44;7.80;99.90
20141;DHT22;10231;47.702;9.826;2023-03-23T02:44:12;7.70;99.90
20141;DHT22;10231;47.702;9.826;2023-03-23T02:46:39;7.70;99.90
20141;DHT22;10231;47.702;9.826;2023-03-23T02:49:07;7.70;99.90
20141;DHT22;10231;47.702;9.826;2023-03-23T02:51:34;7.70;99.90
20141;DHT22;10231;47.702;9.826;2023-03-23T02:54:01;7.80;99.90
20141;DHT22;10231;47.702;9.826;2023-03-23T02:56:29;7.80;99.90
20141;DHT22;10231;47.702;9.826;2023-03-23T02:58:55;7.80;99.90
20141;DHT22;10231;47.702;9.826;2023-03-23T03:04:01;7.70;99.90
20141;DHT22;10231;47.702;9.826;2023-03-23T03:06:36;7.60;99.90
20141;DHT22;10231;47.702;9.826;2023-03-23T03:17:52;7.70;99.90
20141;DHT22;10231;47.702;9.826;2023-03-23T03:20:21;7.80;99.90
20141;DHT22;10231;47.702;9.826;2023-03-23T03:22:48;7.80;99.90
20141;DHT22;10231;47.702;9.826;2023-03-23T03:25:15;7.80;99.90
20141;DHT22;10231;47.702;9.826;2023-03-23T03:27:44;7.70;99.90
20141;DHT22;10231;47.702;9.826;2023-03-23T03:30:13;7.80;99.90
20141;DHT22;10231;47.702;9.826;2023-03-23T03:32:47;7.80;99.90
20141;DHT22;10231;47.702;9.826;2023-03-23T03:35:14;7.80;99.90
20141;DHT22;10231;47.702;9.826;2023-03-23T03:37:41;7.80;99.90
20141;DHT22;10231;47.702;9.826;2023-03-23T03:40:10;7.80;99.90
20141;DHT22;10231;47.702;9.826;2023-03-23T03:42:44;7.80;99.90
20141;DHT22;10231;47.702;9.826;2023-03-23T03:45:13;7.80;99.90
20141;DHT22;10231;47.702;9.826;2023-03-23T03:47:38;7.80;99.90
20141;DHT22;10231;47.702;9.826;2023-03-23T03:50:04;7.80;99.90
20141;DHT22;10231;47.702;9.826;2023-03-23T03:52:31;7.90;99.90
20141;DHT22;10231;47.702;9.826;2023-03-23T03:54:57;7.90;99.90
20141;DHT22;10231;47.702;9.826;2023-03-23T03:57:23;7.80;99.90
20141;DHT22;10231;47.702;9.826;2023-03-23T03:59:49;7.80;99.90
20141;DHT22;10231;47.702;9.826;2023-03-23T04:02:15;7.80;99.90
20141;DHT22;10231;47.702;9.826;2023-03-23T04:04:46;7.90;99.90
20141;DHT22;10231;47.702;9.826;2023-03-23T04:07:11;7.90;99.90
20141;DHT22;10231;47.702;9.826;2023-03-23T04:09:39;8.00;99.90
20141;DHT22;10231;47.702;9.826;2023-03-23T04:12:05;8.00;99.90
20141;DHT22;10231;47.702;9.826;2023-03-23T04:14:31;8.10;99.90
20141;DHT22;10231;47.702;9.826;2023-03-23T04:16:57;8.00;99.90
20141;DHT22;10231;47.702;9.826;2023-03-23T04:19:24;8.10;99.90
20141;DHT22;10231;47.702;9.826;2023-03-23T04:21:50;8.00;99.90
20141;DHT22;10231;47.702;9.826;2023-03-23T04:24:16;8.10;99.90
20141;DHT22;10231;47.702;9.826;2023-03-23T04:26:46;8.10;99.90
20141;DHT22;10231;47.702;9.826;2023-03-23T04:29:12;8.10;99.90
20141;DHT22;10231;47.702;9.826;2023-03-23T04:31:38;8.10;99.90
20141;DHT22;10231;47.702;9.826;2023-03-23T04:34:04;8.20;99.90
20141;DHT22;10231;47.702;9.826;2023-03-23T04:36:30;8.20;99.90
20141;DHT22;10231;47.702;9.826;2023-03-23T04:38:55;8.20;99.90
20141;DHT22;10231;47.702;9.826;2023-03-23T04:41:22;8.20;99.90
20141;DHT22;10231;47.702;9.826;2023-03-23T04:43:48;8.30;99.90
20141;DHT22;10231;47.702;9.826;2023-03-23T04:46:18;8.30;99.90
20141;DHT22;10231;47.702;9.826;2023-03-23T04:48:44;8.40;99.90
20141;DHT22;10231;47.702;9.826;2023-03-23T04:51:10;8.40;99.90
20141;DHT22;10231;47.702;9.826;2023-03-23T04:53:37;8.50;99.90
20141;DHT22;10231;47.702;9.826;2023-03-23T04:56:03;8.50;99.90
20141;DHT22;10231;47.702;9.826;2023-03-23T04:58:28;8.50;99.90
20141;DHT22;10231;47.702;9.826;2023-03-23T05:00:55;8.50;99.90
20141;DHT22;10231;47.702;9.826;2023-03-23T05:03:21;8.50;99.90
20141;DHT22;10231;47.702;9.826;2023-03-23T05:05:47;8.50;99.90
20141;DHT22;10231;47.702;9.826;2023-03-23T05:08:18;8.50;99.90
20141;DHT22;10231;47.702;9.826;2023-03-23T05:10:53;8.40;99.90
20141;DHT22;10231;47.702;9.826;2023-03-23T05:13:19;8.50;99.90
20141;DHT22;10231;47.702;9.826;2023-03-23T05:15:45;8.40;99.90
20141;DHT22;10231;47.702;9.826;2023-03-23T05:18:11;8.50;99.90
20141;DHT22;10231;47.702;9.826;2023-03-23T05:20:36;8.50;99.90
20141;DHT22;10231;47.702;9.826;2023-03-23T05:23:02;8.50;99.90
20141;DHT22;10231;47.702;9.826;2023-03-23T05:25:28;8.60;99.90
20141;DHT22;10231;47.702;9.826;2023-03-23T05:27:53;8.60;99.90
20141;DHT22;10231;47.702;9.826;2023-03-23T05:30:21;8.70;99.90
20141;DHT22;10231;47.702;9.826;2023-03-23T05:32:47;8.70;99.90
20141;DHT22;10231;47.702;9.826;2023-03-23T05:35:17;8.70;99.90
20141;DHT22;10231;47.702;9.826;2023-03-23T05:37:43;8.70;99.90
20141;DHT22;10231;47.702;9.826;2023-03-23T05:40:10;8.60;99.90
20141;DHT22;10231;47.702;9.826;2023-03-23T05:42:37;8.60;99.90
20141;DHT22;10231;47.702;9.826;2023-03-23T05:45:04;8.60;99.90
20141;DHT22;10231;47.702;9.826;2023-03-23T05:47:30;8.50;99.90
20141;DHT22;10231;47.702;9.826;2023-03-23T05:49:56;8.60;99.90
20141;DHT22;10231;47.702;9.826;2023-03-23T05:52:22;8.60;99.90
20141;DHT22;10231;47.702;9.826;2023-03-23T05:54:50;8.60;99.90
20141;DHT22;10231;47.702;9.826;2023-03-23T05:57:15;8.60;99.90
20141;DHT22;10231;47.702;9.826;2023-03-23T05:59:41;8.60;99.90
20141;DHT22;10231;47.702;9.826;2023-03-23T06:02:07;8.60;99.90
20141;DHT22;10231;47.702;9.826;2023-03-23T06:04:33;8.70;99.90
20141;DHT22;10231;47.702;9.826;2023-03-23T06:07:02;8.70;99.90
20141;DHT22;10231;47.702;9.826;2023-03-23T06:09:29;8.70;99.90
20141;DHT22;10231;47.702;9.826;2023-03-23T06:11:54;8.80;99.90
20141;DHT22;10231;47.702;9.826;2023-03-23T06:14:20;8.80;99.90
20141;DHT22;10231;47.702;9.826;2023-03-23T06:16:46;8.90;99.90
20141;DHT22;10231;47.702;9.826;2023-03-23T06:19:12;8.90;99.90
20141;DHT22;10231;47.702;9.826;2023-03-23T06:21:38;8.90;99.90
20141;DHT22;10231;47.702;9.826;2023-03-23T06:24:04;8.90;99.90
20141;DHT22;10231;47.702;9.826;2023-03-23T06:26:35;8.90;99.90
20141;DHT22;10231;47.702;9.826;2023-03-23T06:29:02;9.00;99.90
20141;DHT22;10231;47.702;9.826;2023-03-23T06:31:30;9.00;99.90
20141;DHT22;10231;47.702;9.826;2023-03-23T06:33:58;9.10;99.90
20141;DHT22;10231;47.702;9.826;2023-03-23T06:36:24;9.10;99.90
20141;DHT22;10231;47.702;9.826;2023-03-23T06:38:52;9.20;99.90
20141;DHT22;10231;47.702;9.826;2023-03-23T06:41:17;9.30;99.90
20141;DHT22;10231;47.702;9.826;2023-03-23T06:43:43;9.20;99.90
20141;DHT22;10231;47.702;9.826;2023-03-23T06:46:09;9.30;99.90
20141;DHT22;10231;47.702;9.826;2023-03-23T06:48:34;9.40;99.90
20141;DHT22;10231;47.702;9.826;2023-03-23T06:51:00;9.50;99.90
20141;DHT22;10231;47.702;9.826;2023-03-23T06:53:27;9.60;99.90
20141;DHT22;10231;47.702;9.826;2023-03-23T06:55:53;9.60;99.90
20141;DHT22;10231;47.702;9.826;2023-03-23T06:58:18;9.60;99.90
20141;DHT22;10231;47.702;9.826;2023-03-23T07:00:44;9.70;99.90
20141;DHT22;10231;47.702;9.826;2023-03-23T07:03:11;9.70;99.90
20141;DHT22;10231;47.702;9.826;2023-03-23T07:05:36;9.80;99.90
20141;DHT22;10231;47.702;9.826;2023-03-23T07:08:03;9.90;99.90
20141;DHT22;10231;47.702;9.826;2023-03-23T07:10:29;9.90;99.90
20141;DHT22;10231;47.702;9.826;2023-03-23T07:12:55;9.90;99.90
20141;DHT22;10231;47.702;9.826;2023-03-23T07:15:22;10.00;99.90
20141;DHT22;10231;47.702;9.826;2023-03-23T07:17:47;10.10;99.90
20141;DHT22;10231;47.702;9.826;2023-03-23T07:20:14;10.20;99.90
20141;DHT22;10231;47.702;9.826;2023-03-23T07:22:40;10.20;99.90
20141;DHT22;10231;47.702;9.826;2023-03-23T07:25:06;10.30;99.90
20141;DHT22;10231;47.702;9.826;2023-03-23T07:27:33;10.40;99.90
20141;DHT22;10231;47.702;9.826;2023-03-23T07:29:59;10.50;99.90
20141;DHT22;10231;47.702;9.826;2023-03-23T07:32:24;10.60;99.90
20141;DHT22;10231;47.702;9.826;2023-03-23T07:34:50;10.70;99.90
20141;DHT22;10231;47.702;9.826;2023-03-23T07:37:16;10.80;99.90
20141;DHT22;10231;47.702;9.826;2023-03-23T07:39:42;10.90;99.90
20141;DHT22;10231;47.702;9.826;2023-03-23T07:42:08;11.10;99.90
20141;DHT22;10231;47.702;9.826;2023-03-23T07:44:34;11.20;99.90
20141;DHT22;10231;47.702;9.826;2023-03-23T07:46:59;11.40;99.90
20141;DHT22;10231;47.702;9.826;2023-03-23T07:49:25;11.70;99.90
20141;DHT22;10231;47.702;9.826;2023-03-23T07:51:52;11.70;99.90
20141;DHT22;10231;47.702;9.826;2023-03-23T07:54:17;11.90;99.90
20141;DHT22;10231;47.702;9.826;2023-03-23T07:56:44;12.10;99.90
20141;DHT22;10231;47.702;9.826;2023-03-23T07:59:11;12.40;99.90
20141;DHT22;10231;47.702;9.826;2023-03-23T08:01:38;12.60;99.90
20141;DHT22;10231;47.702;9.826;2023-03-23T08:04:04;12.60;99.90
20141;DHT22;10231;47.702;9.826;2023-03-23T08:06:32;12.70;99.90
20141;DHT22;10231;47.702;9.826;2023-03-23T08:08:58;12.80;99.90
20141;DHT22;10231;47.702;9.826;2023-03-23T08:11:26;12.90;99.90
20141;DHT22;10231;47.702;9.826;2023-03-23T08:13:52;12.90;99.90
20141;DHT22;10231;47.702;9.826;2023-03-23T08:16:17;12.90;99.90
20141;DHT22;10231;47.702;9.826;2023-03-23T08:18:45;13.00;99.90
20141;DHT22;10231;47.702;9.826;2023-03-23T08:21:11;13.10;99.90
20141;DHT22;10231;47.702;9.826;2023-03-23T08:23:37;13.20;99.90
20141;DHT22;10231;47.702;9.826;2023-03-23T08:26:06;13.20;99.90
20141;DHT22;10231;47.702;9.826;2023-03-23T08:28:34;13.30;99.90
20141;DHT22;10231;47.702;9.826;2023-03-23T08:31:05;13.40;99.90
20141;DHT22;10231;47.702;9.826;2023-03-23T08:33:32;13.40;99.90
20141;DHT22;10231;47.702;9.826;2023-03-23T08:35:59;13.50;99.90
20141;DHT22;10231;47.702;9.826;2023-03-23T08:38:25;13.60;99.90
20141;DHT22;10231;47.702;9.826;2023-03-23T08:40:51;13.70;99.90
20141;DHT22;10231;47.702;9.826;2023-03-23T08:43:18;13.70;99.90
20141;DHT22;10231;47.702;9.826;2023-03-23T08:49:06;13.80;99.90
20141;DHT22;10231;47.702;9.826;2023-03-23T08:51:32;13.80;99.90
20141;DHT22;10231;47.702;9.826;2023-03-23T08:53:57;13.90;99.90
20141;DHT22;10231;47.702;9.826;2023-03-23T08:56:24;13.90;99.90
20141;DHT22;10231;47.702;9.826;2023-03-23T08:58:49;13.90;99.90
20141;DHT22;10231;47.702;9.826;2023-03-23T09:01:15;13.90;99.90
20141;DHT22;10231;47.702;9.826;2023-03-23T09:03:41;13.90;99.90
20141;DHT22;10231;47.702;9.826;2023-03-23T09:06:08;14.00;99.90
20141;DHT22;10231;47.702;9.826;2023-03-23T09:08:34;14.10;99.90
20141;DHT22;10231;47.702;9.826;2023-03-23T09:11:06;14.10;99.90
20141;DHT22;10231;47.702;9.826;2023-03-23T09:13:33;14.10;99.90
20141;DHT22;10231;47.702;9.826;2023-03-23T09:15:59;14.10;99.90
20141;DHT22;10231;47.702;9.826;2023-03-23T09:18:25;14.10;99.90
20141;DHT22;10231;47.702;9.826;2023-03-23T09:20:53;14.10;99.90
20141;DHT22;10231;47.702;9.826;2023-03-23T09:23:18;14.10;99.90
20141;DHT22;10231;47.702;9.826;2023-03-23T09:25:45;14.10;99.90
20141;DHT22;10231;47.702;9.826;2023-03-23T09:28:11;14.10;99.90
20141;DHT22;10231;47.702;9.826;2023-03-23T09:30:38;14.20;99.90
20141;DHT22;10231;47.702;9.826;2023-03-23T09:33:04;14.20;99.90
20141;DHT22;10231;47.702;9.826;2023-03-23T09:35:32;14.20;99.90
20141;DHT22;10231;47.702;9.826;2023-03-23T09:37:59;14.30;99.90
20141;DHT22;10231;47.702;9.826;2023-03-23T09:49:17;14.50;99.90
20141;DHT22;10231;47.702;9.826;2023-03-23T09:51:48;14.60;99.90
20141;DHT22;10231;47.702;9.826;2023-03-23T09:54:35;14.70;99.90
20141;DHT22;10231;47.702;9.826;2023-03-23T09:57:02;14.60;99.90
20141;DHT22;10231;47.702;9.826;2023-03-23T09:59:37;14.60;99.90
20141;DHT22;10231;47.702;9.826;2023-03-23T10:02:21;14.60;99.90
20141;DHT22;10231;47.702;9.826;2023-03-23T10:04:51;14.60;99.90
20141;DHT22;10231;47.702;9.826;2023-03-23T10:07:25;14.60;99.90
20141;DHT22;10231;47.702;9.826;2023-03-23T10:09:54;14.60;99.90
20141;DHT22;10231;47.702;9.826;2023-03-23T10:12:50;14.70;99.90
20141;DHT22;10231;47.702;9.826;2023-03-23T10:15:21;14.80;99.90
20141;DHT22;10231;47.702;9.826;2023-03-23T10:18:07;14.80;99.90
20141;DHT22;10231;47.702;9.826;2023-03-23T10:20:54;14.80;99.90
20141;DHT22;10231;47.702;9.826;2023-03-23T10:23:51;14.90;99.90
20141;DHT22;10231;47.702;9.826;2023-03-23T10:26:25;15.10;99.90
20141;DHT22;10231;47.702;9.826;2023-03-23T10:28:57;15.10;99.90
20141;DHT22;10231;47.702;9.826;2023-03-23T10:31:29;15.20;99.90
20141;DHT22;10231;47.702;9.826;2023-03-23T10:34:02;15.30;99.90
20141;DHT22;10231;47.702;9.826;2023-03-23T10:36:34;15.40;99.90
20141;DHT22;10231;47.702;9.826;2023-03-23T10:39:21;15.50;99.90
20141;DHT22;10231;47.702;9.826;2023-03-23T10:41:48;15.50;99.90
20141;DHT22;10231;47.702;9.826;2023-03-23T10:46:57;15.50;99.90
20141;DHT22;10231;47.702;9.826;2023-03-23T10:49:28;15.50;99.90
20141;DHT22;10231;47.702;9.826;2023-03-23T10:52:03;15.60;99.90
20141;DHT22;10231;47.702;9.826;2023-03-23T10:54:37;15.60;99.90
20141;DHT22;10231;47.702;9.826;2023-03-23T10:57:22;15.60;99.90
20141;DHT22;10231;47.702;9.826;2023-03-23T10:59:49;15.70;99.90
20141;DHT22;10231;47.702;9.826;2023-03-23T11:02:18;15.70;99.90
20141;DHT22;10231;47.702;9.826;2023-03-23T11:05:13;15.70;99.90
20141;DHT22;10231;47.702;9.826;2023-03-23T11:07:41;15.70;99.90
20141;DHT22;10231;47.702;9.826;2023-03-23T11:10:27;15.70;99.90
20141;DHT22;10231;47.702;9.826;2023-03-23T11:12:57;15.70;99.90
20141;DHT22;10231;47.702;9.826;2023-03-23T11:15:32;15.70;99.90
20141;DHT22;10231;47.702;9.826;2023-03-23T11:18:00;15.80;99.90
20141;DHT22;10231;47.702;9.826;2023-03-23T11:20:28;15.80;99.90
20141;DHT22;10231;47.702;9.826;2023-03-23T11:22:55;15.80;99.90
20141;DHT22;10231;47.702;9.826;2023-03-23T11:25:21;15.80;99.90
20141;DHT22;10231;47.702;9.826;2023-03-23T11:27:47;15.80;99.50
20141;DHT22;10231;47.702;9.826;2023-03-23T11:30:27;15.90;99.30
20141;DHT22;10231;47.702;9.826;2023-03-23T11:32:59;15.90;99.10
20141;DHT22;10231;47.702;9.826;2023-03-23T11:35:27;15.80;99.10
20141;DHT22;10231;47.702;9.826;2023-03-23T11:37:55;15.80;99.30
20141;DHT22;10231;47.702;9.826;2023-03-23T11:40:24;15.80;99.50
20141;DHT22;10231;47.702;9.826;2023-03-23T11:45:30;15.70;99.50
20141;DHT22;10231;47.702;9.826;2023-03-23T11:50:52;15.70;99.90
20141;DHT22;10231;47.702;9.826;2023-03-23T11:56:17;15.70;99.90
20141;DHT22;10231;47.702;9.826;2023-03-23T11:58:44;15.70;99.90
20141;DHT22;10231;47.702;9.826;2023-03-23T12:09:55;15.70;99.90
20141;DHT22;10231;47.702;9.826;2023-03-23T12:12:58;15.70;99.90
20141;DHT22;10231;47.702;9.826;2023-03-23T12:18:20;15.70;99.90
20141;DHT22;10231;47.702;9.826;2023-03-23T12:21:14;15.70;99.90
20141;DHT22;10231;47.702;9.826;2023-03-23T12:23:56;15.70;99.70
20141;DHT22;10231;47.702;9.826;2023-03-23T12:26:39;15.80;99.70
20141;DHT22;10231;47.702;9.826;2023-03-23T12:29:37;15.80;99.70
20141;DHT22;10231;47.702;9.826;2023-03-23T12:32:19;15.90;99.40
20141;DHT22;10231;47.702;9.826;2023-03-23T12:35:09;16.00;99.40
20141;DHT22;10231;47.702;9.826;2023-03-23T12:41:03;16.10;99.20
20141;DHT22;10231;47.702;9.826;2023-03-23T12:43:36;16.20;98.70
20141;DHT22;10231;47.702;9.826;2023-03-23T12:49:13;16.20;98.30
20141;DHT22;10231;47.702;9.826;2023-03-23T12:51:55;16.20;98.20
20141;DHT22;10231;47.702;9.826;2023-03-23T12:54:48;16.20;98.00
20141;DHT22;10231;47.702;9.826;2023-03-23T13:00:21;16.30;98.90
20141;DHT22;10231;47.702;9.826;2023-03-23T13:03:02;16.30;99.30
20141;DHT22;10231;47.702;9.826;2023-03-23T13:05:56;16.40;98.60
20141;DHT22;10231;47.702;9.826;2023-03-23T13:08:30;16.50;98.20
20141;DHT22;10231;47.702;9.826;2023-03-23T13:11:01;16.60;97.90
20141;DHT22;10231;47.702;9.826;2023-03-23T13:13:48;16.70;97.30
20141;DHT22;10231;47.702;9.826;2023-03-23T13:19:26;16.80;97.90
20141;DHT22;10231;47.702;9.826;2023-03-23T13:22:11;16.70;97.20
20141;DHT22;10231;47.702;9.826;2023-03-23T13:24:48;16.60;97.10
20141;DHT22;10231;47.702;9.826;2023-03-23T13:27:15;16.60;97.00
20141;DHT22;10231;47.702;9.826;2023-03-23T13:29:46;16.30;96.90
20141;DHT22;10231;47.702;9.826;2023-03-23T13:32:18;16.20;97.30
20141;DHT22;10231;47.702;9.826;2023-03-23T13:34:46;16.20;97.70
20141;DHT22;10231;47.702;9.826;2023-03-23T13:37:22;16.10;98.20
20141;DHT22;10231;47.702;9.826;2023-03-23T13:42:52;16.00;98.70
20141;DHT22;10231;47.702;9.826;2023-03-23T13:48:17;16.00;98.00
20141;DHT22;10231;47.702;9.826;2023-03-23T13:53:51;15.90;98.70
20141;DHT22;10231;47.702;9.826;2023-03-23T13:56:25;15.90;99.20
20141;DHT22;10231;47.702;9.826;2023-03-23T13:59:15;15.90;99.30
20141;DHT22;10231;47.702;9.826;2023-03-23T14:01:42;15.90;98.80
20141;DHT22;10231;47.702;9.826;2023-03-23T14:04:15;15.90;99.00
20141;DHT22;10231;47.702;9.826;2023-03-23T14:06:41;15.90;99.20
20141;DHT22;10231;47.702;9.826;2023-03-23T14:09:37;16.00;99.00
20141;DHT22;10231;47.702;9.826;2023-03-23T14:12:06;16.00;98.80
20141;DHT22;10231;47.702;9.826;2023-03-23T14:14:45;15.90;99.40
20141;DHT22;10231;47.702;9.826;2023-03-23T14:17:26;15.90;99.90
20141;DHT22;10231;47.702;9.826;2023-03-23T14:19:55;15.80;99.40
20141;DHT22;10231;47.702;9.826;2023-03-23T14:22:27;15.80;99.60
20141;DHT22;10231;47.702;9.826;2023-03-23T14:25:00;15.70;99.90
20141;DHT22;10231;47.702;9.826;2023-03-23T14:27:27;15.70;99.90
20141;DHT22;10231;47.702;9.826;2023-03-23T14:30:04;15.70;99.90
20141;DHT22;10231;47.702;9.826;2023-03-23T14:32:31;15.60;99.90
20141;DHT22;10231;47.702;9.826;2023-03-23T14:34:59;15.60;99.90
20141;DHT22;10231;47.702;9.826;2023-03-23T14:37:26;15.60;99.90
20141;DHT22;10231;47.702;9.826;2023-03-23T14:39:54;15.60;99.90
20141;DHT22;10231;47.702;9.826;2023-03-23T14:42:33;15.60;99.80
20141;DHT22;10231;47.702;9.826;2023-03-23T14:45:00;15.60;99.20
20141;DHT22;10231;47.702;9.826;2023-03-23T14:47:35;15.50;99.50
20141;DHT22;10231;47.702;9.826;2023-03-23T14:50:04;15.50;99.90
20141;DHT22;10231;47.702;9.826;2023-03-23T14:52:33;15.40;99.90
20141;DHT22;10231;47.702;9.826;2023-03-23T14:55:18;15.40;99.90
20141;DHT22;10231;47.702;9.826;2023-03-23T14:57:45;15.30;99.90
20141;DHT22;10231;47.702;9.826;2023-03-23T15:00:17;15.30;99.90
20141;DHT22;10231;47.702;9.826;2023-03-23T15:02:46;15.30;99.90
20141;DHT22;10231;47.702;9.826;2023-03-23T15:05:33;15.20;99.90
20141;DHT22;10231;47.702;9.826;2023-03-23T15:08:05;15.10;99.90
20141;DHT22;10231;47.702;9.826;2023-03-23T15:10:31;14.80;99.90
20141;DHT22;10231;47.702;9.826;2023-03-23T15:12:57;14.60;99.90
20141;DHT22;10231;47.702;9.826;2023-03-23T15:15:29;14.40;99.90
20141;DHT22;10231;47.702;9.826;2023-03-23T15:17:56;14.30;99.90
20141;DHT22;10231;47.702;9.826;2023-03-23T15:20:23;14.20;99.90
20141;DHT22;10231;47.702;9.826;2023-03-23T15:22:50;14.20;99.90
20141;DHT22;10231;47.702;9.826;2023-03-23T15:25:31;14.20;99.90
20141;DHT22;10231;47.702;9.826;2023-03-23T15:30:32;14.30;99.90
20141;DHT22;10231;47.702;9.826;2023-03-23T15:33:09;14.30;99.90
20141;DHT22;10231;47.702;9.826;2023-03-23T15:35:37;14.30;99.90
20141;DHT22;10231;47.702;9.826;2023-03-23T15:38:19;14.30;99.90
20141;DHT22;10231;47.702;9.826;2023-03-23T15:40:49;14.30;99.90
20141;DHT22;10231;47.702;9.826;2023-03-23T15:43:37;14.30;99.90
20141;DHT22;10231;47.702;9.826;2023-03-23T15:51:26;14.30;99.90
20141;DHT22;10231;47.702;9.826;2023-03-23T15:53:54;14.40;99.90
20141;DHT22;10231;47.702;9.826;2023-03-23T15:56:20;14.40;99.90
20141;DHT22;10231;47.702;9.826;2023-03-23T15:58:46;14.50;99.90
20141;DHT22;10231;47.702;9.826;2023-03-23T16:01:15;14.50;99.90
20141;DHT22;10231;47.702;9.826;2023-03-23T16:04:05;14.60;99.90
20141;DHT22;10231;47.702;9.826;2023-03-23T16:06:32;14.60;99.90
20141;DHT22;10231;47.702;9.826;2023-03-23T16:08:58;14.60;99.90
20141;DHT22;10231;47.702;9.826;2023-03-23T16:11:27;14.60;99.90
20141;DHT22;10231;47.702;9.826;2023-03-23T16:13:52;14.60;99.90
20141;DHT22;10231;47.702;9.826;2023-03-23T16:16:22;14.60;99.90
20141;DHT22;10231;47.702;9.826;2023-03-23T16:18:48;14.60;99.90
20141;DHT22;10231;47.702;9.826;2023-03-23T16:21:14;14.50;99.90
20141;DHT22;10231;47.702;9.826;2023-03-23T16:23:39;14.50;99.90
20141;DHT22;10231;47.702;9.826;2023-03-23T16:26:07;14.50;99.90
20141;DHT22;10231;47.702;9.826;2023-03-23T16:28:33;14.60;99.90
20141;DHT22;10231;47.702;9.826;2023-03-23T16:30:58;14.50;99.90
20141;DHT22;10231;47.702;9.826;2023-03-23T16:33:24;14.50;99.90
20141;DHT22;10231;47.702;9.826;2023-03-23T16:35:50;14.50;99.90
20141;DHT22;10231;47.702;9.826;2023-03-23T16:38:16;14.50;99.90
20141;DHT22;10231;47.702;9.826;2023-03-23T16:40:42;14.50;99.90
20141;DHT22;10231;47.702;9.826;2023-03-23T16:43:09;14.50;99.90
20141;DHT22;10231;47.702;9.826;2023-03-23T16:45:40;14.40;99.90
20141;DHT22;10231;47.702;9.826;2023-03-23T16:48:06;14.40;99.90
20141;DHT22;10231;47.702;9.826;2023-03-23T16:50:33;14.40;99.90
20141;DHT22;10231;47.702;9.826;2023-03-23T16:52:59;14.40;99.90
20141;DHT22;10231;47.702;9.826;2023-03-23T16:55:25;14.30;99.90
20141;DHT22;10231;47.702;9.826;2023-03-23T16:57:51;14.30;99.90
20141;DHT22;10231;47.702;9.826;2023-03-23T17:00:18;14.30;99.90
20141;DHT22;10231;47.702;9.826;2023-03-23T17:02:45;14.30;99.90
20141;DHT22;10231;47.702;9.826;2023-03-23T17:05:12;14.20;99.90
20141;DHT22;10231;47.702;9.826;2023-03-23T17:07:40;14.10;99.90
20141;DHT22;10231;47.702;9.826;2023-03-23T17:10:08;14.20;99.90
20141;DHT22;10231;47.702;9.826;2023-03-23T17:12:34;14.10;99.90
20141;DHT22;10231;47.702;9.826;2023-03-23T17:15:00;14.10;99.90
20141;DHT22;10231;47.702;9.826;2023-03-23T17:17:26;14.10;99.90
20141;DHT22;10231;47.702;9.826;2023-03-23T17:19:51;14.10;99.90